createdAt,value
2023-04-10T00:03:17.900Z,5.50
2023-04-10T00:07:20.477Z,5.55
2023-04-10T00:11:22.474Z,5.52
2023-04-10T00:15:24.511Z,5.43
2023-04-10T00:19:26.531Z,5.33
2023-04-10T00:23:28.498Z,5.28
2023-04-10T00:27:30.449Z,5.27
2023-04-10T00:31:32.745Z,5.15
2023-04-10T00:35:34.759Z,5.05
2023-04-10T00:39:36.795Z,4.96
2023-04-10T00:43:38.856Z,4.82
2023-04-10T00:47:41.100Z,4.82
2023-04-10T00:51:44.582Z,4.93
2023-04-10T00:55:47.138Z,4.98
2023-04-10T00:59:51.006Z,4.94
2023-04-10T01:03:55.107Z,4.86
2023-04-10T01:08:43.080Z,4.87
2023-04-10T01:13:11.420Z,4.87
2023-04-10T01:17:21.876Z,4.88
2023-04-10T01:21:25.176Z,4.82
2023-04-10T01:26:01.199Z,4.79
2023-04-10T01:30:06.668Z,4.77
2023-04-10T01:34:15.693Z,4.62
2023-04-10T01:38:20.681Z,4.59
2023-04-10T01:42:23.233Z,4.57
2023-04-10T01:46:26.630Z,4.49
2023-04-10T01:50:30.542Z,4.36
2023-04-10T01:54:33.457Z,4.34
2023-04-10T01:58:36.834Z,4.35
2023-04-10T02:02:40.312Z,4.31
2023-04-10T02:06:51.457Z,4.24
2023-04-10T02:11:11.584Z,4.21
2023-04-10T02:15:16.842Z,4.16
2023-04-10T02:19:21.094Z,4.06
2023-04-10T02:23:23.847Z,4.04
2023-04-10T02:27:29.093Z,3.99
2023-04-10T02:31:31.200Z,3.97
2023-04-10T02:35:34.383Z,3.91
2023-04-10T02:39:38.413Z,3.89
2023-04-10T02:43:40.569Z,3.88
2023-04-10T02:47:43.316Z,3.86
2023-04-10T02:51:46.080Z,3.80
2023-04-10T02:55:48.107Z,3.72
2023-04-10T02:59:51.377Z,3.66
2023-04-10T03:03:54.504Z,3.60
2023-04-10T03:08:02.028Z,3.53
2023-04-10T03:12:03.938Z,3.63
2023-04-10T03:16:06.943Z,3.66
2023-04-10T03:20:10.361Z,3.59
2023-04-10T03:24:12.521Z,3.57
2023-04-10T03:28:14.687Z,3.58
2023-04-10T03:32:16.987Z,3.80
2023-04-10T03:36:19.086Z,3.96
2023-04-10T03:40:23.979Z,4.01
2023-04-10T03:44:26.266Z,4.10
2023-04-10T03:48:30.686Z,4.16
2023-04-10T03:52:33.229Z,4.25
2023-04-10T03:56:35.443Z,4.31
2023-04-10T04:00:37.910Z,4.42
2023-04-10T04:04:58.492Z,4.48
2023-04-10T04:09:18.809Z,4.56
2023-04-10T04:13:37.496Z,4.72
2023-04-10T04:17:46.140Z,4.76
2023-04-10T04:22:06.731Z,4.88
2023-04-10T04:26:31.295Z,4.96
2023-04-10T04:30:46.779Z,5.17
2023-04-10T04:34:55.112Z,5.30
2023-04-10T04:39:06.685Z,5.54
2023-04-10T04:43:27.870Z,5.67
2023-04-10T04:47:48.727Z,5.83
2023-04-10T04:51:55.857Z,6.01
2023-04-10T04:56:17.078Z,6.17
2023-04-10T05:00:18.704Z,6.27
2023-04-10T05:04:42.870Z,6.46
2023-04-10T05:09:10.951Z,6.67
2023-04-10T05:13:36.583Z,6.83
2023-04-10T05:17:55.446Z,7.03
2023-04-10T05:22:18.460Z,7.26
2023-04-10T05:26:20.928Z,7.48
2023-04-10T05:30:27.895Z,7.59
2023-04-10T05:34:39.445Z,7.78
2023-04-10T05:38:47.826Z,7.88
2023-04-10T05:43:08.493Z,7.96
2023-04-10T05:47:29.886Z,8.11
2023-04-10T05:51:53.419Z,8.26
2023-04-10T05:56:13.784Z,8.42
2023-04-10T06:00:21.102Z,8.50
2023-04-10T06:04:46.619Z,8.71
2023-04-10T06:08:49.855Z,8.87
2023-04-10T06:12:52.093Z,8.90
2023-04-10T06:16:57.089Z,9.17
2023-04-10T06:21:02.069Z,9.20
2023-04-10T06:25:05.460Z,9.51
2023-04-10T06:29:07.651Z,9.91
2023-04-10T06:33:09.962Z,9.99
2023-04-10T06:37:16.370Z,10.19
2023-04-10T06:41:18.754Z,10.40
2023-04-10T06:45:21.223Z,10.60
2023-04-10T06:49:24.283Z,10.70
2023-04-10T06:53:27.188Z,10.76
2023-04-10T06:57:29.239Z,11.10
2023-04-10T07:01:31.317Z,11.20
2023-04-10T07:05:32.961Z,11.24
2023-04-10T07:09:34.978Z,11.38
2023-04-10T07:13:38.900Z,11.50
2023-04-10T07:17:41.030Z,11.70
2023-04-10T07:21:43.493Z,11.90
2023-04-10T07:25:46.618Z,11.84
2023-04-10T07:29:48.690Z,12.11
2023-04-10T07:33:51.101Z,12.15
2023-04-10T07:37:54.591Z,12.54
2023-04-10T07:41:56.767Z,12.56
2023-04-10T07:45:58.748Z,12.69
2023-04-10T07:50:00.817Z,12.82
2023-04-10T07:54:04.017Z,12.88
2023-04-10T07:58:06.376Z,13.05
2023-04-10T08:02:08.631Z,13.04
2023-04-10T08:06:11.653Z,13.14
2023-04-10T08:10:13.648Z,13.30
2023-04-10T08:14:18.355Z,13.42
2023-04-10T08:18:20.850Z,13.29
2023-04-10T08:22:22.869Z,13.69
2023-04-10T08:26:26.412Z,13.91
2023-04-10T08:30:28.472Z,13.99
2023-04-10T08:34:30.457Z,14.02
2023-04-10T08:38:32.483Z,14.14
2023-04-10T08:42:35.836Z,14.51
2023-04-10T08:46:43.789Z,14.64
2023-04-10T08:50:46.923Z,14.67
2023-04-10T08:54:53.836Z,14.57
2023-04-10T08:58:56.066Z,14.94
2023-04-10T09:02:59.035Z,14.99
2023-04-10T09:07:01.124Z,15.03
2023-04-10T09:11:03.305Z,15.15
2023-04-10T09:15:05.806Z,15.21
2023-04-10T09:19:07.896Z,15.36
2023-04-10T09:23:22.155Z,15.34
2023-04-10T09:27:31.989Z,15.22
2023-04-10T09:31:38.627Z,15.59
2023-04-10T09:35:41.075Z,15.72
2023-04-10T09:39:43.864Z,16.01
2023-04-10T09:43:46.926Z,15.79
2023-04-10T09:48:06.717Z,15.77
2023-04-10T09:52:38.330Z,15.52
2023-04-10T09:56:41.227Z,15.84
2023-04-10T10:00:46.102Z,15.70
2023-04-10T10:04:49.604Z,15.75
2023-04-10T10:08:52.405Z,15.66
2023-04-10T10:13:01.756Z,16.03
2023-04-10T10:17:10.847Z,16.35
2023-04-10T10:21:13.909Z,16.61
2023-04-10T10:25:16.506Z,16.94
2023-04-10T10:29:19.696Z,16.66
2023-04-10T10:33:21.969Z,16.72
2023-04-10T10:37:24.060Z,16.83
2023-04-10T10:41:35.672Z,17.10
2023-04-10T10:45:42.762Z,17.14
2023-04-10T10:49:58.189Z,17.11
2023-04-10T10:54:00.243Z,17.38
2023-04-10T10:58:08.869Z,17.12
2023-04-10T11:02:18.487Z,17.15
2023-04-10T11:06:43.495Z,17.00
2023-04-10T11:11:23.536Z,17.48
2023-04-10T11:15:26.233Z,17.97
2023-04-10T11:19:28.579Z,17.80
2023-04-10T11:23:30.819Z,17.73
2023-04-10T11:27:40.523Z,17.16
2023-04-10T11:31:44.035Z,17.28
2023-04-10T11:35:46.313Z,17.28
2023-04-10T11:39:48.623Z,17.25
2023-04-10T11:43:53.370Z,17.33
2023-04-10T11:47:55.467Z,17.71
2023-04-10T11:51:57.554Z,18.30
2023-04-10T11:55:59.765Z,17.59
2023-04-10T12:00:01.902Z,16.91
2023-04-10T12:04:04.070Z,16.65
2023-04-10T12:08:06.619Z,16.97
2023-04-10T12:12:08.531Z,16.94
2023-04-10T12:16:11.016Z,16.98
2023-04-10T12:20:16.483Z,17.07
2023-04-10T12:24:47.423Z,16.94
2023-04-10T12:28:54.879Z,17.22
2023-04-10T12:32:57.532Z,17.65
2023-04-10T12:36:59.596Z,17.49
2023-04-10T12:41:02.016Z,17.45
2023-04-10T12:45:04.218Z,17.29
2023-04-10T12:49:14.374Z,17.38
2023-04-10T12:53:16.566Z,17.68
2023-04-10T12:57:27.099Z,17.81
2023-04-10T13:01:29.181Z,17.04
2023-04-10T13:05:31.427Z,15.67
2023-04-10T13:09:33.435Z,14.35
2023-04-10T13:13:35.537Z,13.72
2023-04-10T13:17:37.669Z,13.61
2023-04-10T13:21:39.808Z,13.21
2023-04-10T13:25:42.960Z,13.13
2023-04-10T13:29:45.072Z,13.07
2023-04-10T13:33:48.166Z,13.06
2023-04-10T13:37:53.164Z,13.07
2023-04-10T13:41:55.821Z,13.31
2023-04-10T13:45:57.846Z,13.35
2023-04-10T13:49:59.938Z,13.27
2023-04-10T13:54:04.664Z,13.06
2023-04-10T13:58:07.171Z,13.13
2023-04-10T14:02:09.711Z,12.70
2023-04-10T14:06:11.512Z,12.78
2023-04-10T14:10:13.492Z,12.90
2023-04-10T14:14:15.716Z,13.08
2023-04-10T14:18:18.423Z,13.29
2023-04-10T14:22:21.127Z,13.36
2023-04-10T14:26:23.484Z,13.50
2023-04-10T14:30:30.644Z,13.53
2023-04-10T14:34:32.664Z,13.60
2023-04-10T14:38:36.707Z,13.57
2023-04-10T14:42:38.797Z,13.70
2023-04-10T14:46:40.886Z,13.65
2023-04-10T14:50:43.017Z,14.33
2023-04-10T14:54:45.003Z,15.06
2023-04-10T14:58:47.661Z,15.74
2023-04-10T15:02:49.814Z,16.11
2023-04-10T15:06:52.271Z,16.27
2023-04-10T15:10:54.974Z,16.49
2023-04-10T15:14:57.331Z,16.59
2023-04-10T15:18:59.297Z,16.91
2023-04-10T15:23:02.292Z,17.01
2023-04-10T15:27:04.430Z,17.61
2023-04-10T15:31:06.679Z,19.30
2023-04-10T15:35:08.789Z,21.08
2023-04-10T15:39:11.180Z,22.34
2023-04-10T15:43:13.269Z,22.38
2023-04-10T15:47:15.402Z,23.10
2023-04-10T15:51:17.470Z,22.29
2023-04-10T15:55:19.521Z,22.79
2023-04-10T15:59:21.821Z,22.34
2023-04-10T16:03:24.046Z,22.12
2023-04-10T16:07:26.593Z,21.09
2023-04-10T16:11:28.955Z,20.37
2023-04-10T16:15:34.489Z,19.20
2023-04-10T16:19:36.915Z,17.90
2023-04-10T16:23:39.092Z,17.41
2023-04-10T16:27:41.142Z,16.84
2023-04-10T16:31:43.191Z,16.28
2023-04-10T16:35:45.547Z,15.73
2023-04-10T16:39:47.861Z,15.38
2023-04-10T16:43:49.910Z,15.07
2023-04-10T16:47:52.004Z,14.86
2023-04-10T16:51:54.417Z,14.86
2023-04-10T16:55:58.030Z,14.31
2023-04-10T17:00:00.636Z,13.73
2023-04-10T17:04:03.188Z,13.25
2023-04-10T17:08:05.308Z,13.04
2023-04-10T17:12:07.387Z,12.78
2023-04-10T17:16:09.576Z,12.44
2023-04-10T17:20:12.362Z,12.20
2023-04-10T17:24:14.418Z,11.92
2023-04-10T17:28:16.552Z,11.62
2023-04-10T17:32:18.607Z,11.37
2023-04-10T17:36:20.868Z,11.10
2023-04-10T17:40:24.944Z,10.89
2023-04-10T17:44:27.407Z,10.54
2023-04-10T17:48:29.717Z,10.38
2023-04-10T17:52:32.112Z,10.11
2023-04-10T17:56:34.390Z,10.03
2023-04-10T18:00:36.596Z,9.87
2023-04-10T18:04:38.974Z,9.86
2023-04-10T18:08:41.514Z,9.80
2023-04-10T18:12:44.362Z,9.89
2023-04-10T18:16:46.835Z,9.85
2023-04-10T18:20:49.209Z,9.75
2023-04-10T18:24:51.562Z,9.55
2023-04-10T18:28:53.905Z,9.39
2023-04-10T18:32:56.487Z,9.19
2023-04-10T18:36:59.502Z,9.06
2023-04-10T18:41:01.964Z,9.14
2023-04-10T18:45:05.033Z,9.05
2023-04-10T18:49:07.676Z,9.03
2023-04-10T18:53:10.022Z,9.08
2023-04-10T18:57:13.450Z,9.10
2023-04-10T19:01:17.511Z,9.14
2023-04-10T19:05:20.006Z,9.07
2023-04-10T19:09:22.187Z,9.01
2023-04-10T19:13:24.248Z,8.92
2023-04-10T19:17:27.712Z,9.00
2023-04-10T19:21:29.850Z,9.25
2023-04-10T19:25:32.692Z,9.23
2023-04-10T19:29:35.149Z,9.29
2023-04-10T19:33:37.272Z,9.26
2023-04-10T19:37:39.293Z,9.24
2023-04-10T19:41:42.559Z,9.25
2023-04-10T19:45:44.786Z,9.22
2023-04-10T19:49:46.975Z,9.15
2023-04-10T19:53:49.293Z,8.91
2023-04-10T19:57:51.982Z,8.81
2023-04-10T20:01:55.906Z,8.72
2023-04-10T20:06:02.752Z,8.55
2023-04-10T20:10:05.240Z,8.54
2023-04-10T20:14:07.318Z,8.38
2023-04-10T20:18:09.325Z,8.23
2023-04-10T20:22:11.399Z,8.11
2023-04-10T20:26:13.965Z,7.94
2023-04-10T20:30:16.008Z,7.86
2023-04-10T20:34:18.096Z,7.77
2023-04-10T20:38:20.069Z,7.58
2023-04-10T20:42:23.192Z,7.24
2023-04-10T20:46:27.342Z,7.36
2023-04-10T20:50:29.412Z,7.28
2023-04-10T20:54:31.415Z,7.15
2023-04-10T20:58:33.469Z,7.07
2023-04-10T21:02:35.765Z,7.01
2023-04-10T21:06:37.917Z,7.03
2023-04-10T21:10:44.177Z,6.90
2023-04-10T21:14:46.225Z,6.89
2023-04-10T21:18:48.251Z,6.86
2023-04-10T21:22:50.056Z,6.75
2023-04-10T21:26:51.994Z,6.71
2023-04-10T21:30:54.040Z,6.65
2023-04-10T21:34:56.086Z,6.51
2023-04-10T21:38:58.405Z,6.54
2023-04-10T21:43:01.584Z,6.46
2023-04-10T21:47:04.473Z,6.47
2023-04-10T21:51:06.565Z,6.45
2023-04-10T21:55:09.253Z,6.33
2023-04-10T21:59:11.530Z,6.17
2023-04-10T22:03:16.312Z,6.10
2023-04-10T22:07:18.496Z,6.05
2023-04-10T22:11:20.822Z,6.07
2023-04-10T22:15:22.815Z,6.06
2023-04-10T22:19:25.741Z,5.93
2023-04-10T22:23:27.856Z,5.92
2023-04-10T22:27:29.900Z,5.91
2023-04-10T22:31:31.919Z,5.82
2023-04-10T22:35:34.124Z,5.81
2023-04-10T22:39:36.156Z,5.82
2023-04-10T22:43:38.153Z,5.92
2023-04-10T22:47:40.193Z,5.81
2023-04-10T22:51:42.199Z,5.76
2023-04-10T22:55:44.218Z,5.48
2023-04-10T22:59:46.330Z,5.46
2023-04-10T23:03:49.757Z,5.64
2023-04-10T23:07:51.947Z,5.63
2023-04-10T23:11:54.016Z,5.58
2023-04-10T23:15:56.458Z,5.55
2023-04-10T23:19:58.492Z,5.54
2023-04-10T23:24:00.675Z,5.50
2023-04-10T23:28:03.645Z,5.50
2023-04-10T23:32:05.766Z,5.33
2023-04-10T23:36:08.320Z,5.28
2023-04-10T23:40:10.926Z,5.25
2023-04-10T23:44:12.941Z,5.19
2023-04-10T23:48:15.031Z,5.07
2023-04-10T23:52:17.077Z,4.99
2023-04-10T23:56:20.858Z,4.73
